Time;durP1;ratioP1;P1;durP2;ratioP2;P2;SDS_P1;SDS_P2;PMS_P1;PMS_P2;Temp;Humidity;BMP_temperature;BMP_pressure;BME280_temperature;BME280_humidity;BME280_pressure;Samples;Min_cycle;Max_cycle;Signal;HPM_P1;HPM_P2
2022/11/22 00:04:57;;;;;;;87.00;51.80;;;;;;;4.18;68.07;97958.52;226870;1241;138893;-62
2022/11/22 00:10:01;;;;;;;83.80;50.30;;;;;;;4.08;68.42;97956.66;226895;1225;138638;-63
2022/11/22 00:15:04;;;;;;;80.60;47.90;;;;;;;3.98;68.34;97955.23;226859;1240;138914;-62
2022/11/22 00:20:10;;;;;;;77.00;45.10;;;;;;;3.89;68.16;97953.75;226262;1244;210938;-62
2022/11/22 00:25:13;;;;;;;;;;;;;;;3.81;68.20;97960.85;226405;1241;138410;-60
2022/11/22 00:30:16;;;;;;;71.70;44.20;;;;;;;3.68;68.60;97958.89;226944;1254;125064;-60
2022/11/22 00:35:19;;;;;;;72.10;44.90;;;;;;;3.57;68.39;97961.03;226765;1255;138597;-60
2022/11/22 00:40:22;;;;;;;66.30;39.90;;;;;;;3.49;68.61;97968.81;226127;1252;138615;-63
2022/11/22 00:45:25;;;;;;;71.60;40.90;;;;;;;3.39;69.08;97969.31;226274;1237;139656;-64
2022/11/22 00:50:29;;;;;;;70.30;44.30;;;;;;;3.48;68.95;97974.31;226717;1254;139093;-64
2022/11/22 00:55:32;;;;;;;78.60;45.30;;;;;;;3.51;68.75;97980.79;226860;1241;138615;-64
2022/11/22 01:00:35;;;;;;;75.50;44.70;;;;;;;3.49;68.53;97979.51;226975;1252;138676;-65
2022/11/22 01:05:38;;;;;;;81.40;47.10;;;;;;;3.46;68.42;97986.19;226985;1242;138450;-65
2022/11/22 01:10:41;;;;;;;81.60;47.80;;;;;;;3.40;68.51;97991.02;226615;1251;138730;-64
2022/11/22 01:15:44;;;;;;;77.50;45.80;;;;;;;3.39;68.44;97989.34;226875;1234;139151;-64
2022/11/22 01:20:47;;;;;;;84.30;49.00;;;;;;;3.28;68.45;97996.30;227612;1247;139098;-62
2022/11/22 01:25:50;;;;;;;80.30;45.80;;;;;;;3.19;68.44;97999.59;227690;1231;139125;-62
2022/11/22 01:30:53;;;;;;;82.50;46.00;;;;;;;3.06;68.81;98006.88;227580;1226;139008;-61
2022/11/22 01:35:57;;;;;;;78.40;44.40;;;;;;;3.05;69.05;98011.98;226719;1249;138532;-62
2022/11/22 01:41:00;;;;;;;77.80;46.00;;;;;;;3.06;68.84;98006.70;226727;1238;138950;-63
2022/11/22 01:46:08;;;;;;;75.40;45.90;;;;;;;3.04;68.86;98007.33;226941;1249;138440;-63
2022/11/22 01:51:39;;;;;;;82.10;48.40;;;;;;;3.00;68.60;98006.46;226626;1248;138857;-61
2022/11/22 01:56:47;;;;;;;81.80;48.50;;;;;;;2.96;68.49;97998.25;227000;1241;138776;-63
2022/11/22 02:01:51;;;;;;;75.90;47.30;;;;;;;2.95;68.47;97991.99;226805;1237;139689;-64
2022/11/22 02:07:12;;;;;;;84.50;50.80;;;;;;;2.94;68.10;97990.64;226489;1234;139766;-61
2022/11/22 02:12:18;;;;;;;79.70;50.30;;;;;;;2.99;68.31;97987.57;227683;1227;138635;-61
2022/11/22 02:17:25;;;;;;;79.50;48.30;;;;;;;2.97;68.13;97987.70;226752;1238;139673;-61
2022/11/22 02:22:52;;;;;;;76.30;47.10;;;;;;;2.90;67.86;97987.52;227001;1241;138372;-62
2022/11/22 02:27:55;;;;;;;78.30;48.10;;;;;;;2.88;68.18;97981.31;226925;1249;139063;-61
2022/11/22 02:32:58;;;;;;;71.20;44.00;;;;;;;2.85;68.25;97981.45;226999;1241;138277;-63
2022/11/22 02:38:12;;;;;;;73.80;43.30;;;;;;;2.82;68.96;97968.45;227663;1238;139143;-62
2022/11/22 02:43:20;;;;;;;75.00;42.70;;;;;;;2.86;69.21;97962.49;226912;1234;138290;-60
2022/11/22 02:48:23;;;;;;;63.60;38.40;;;;;;;2.83;69.34;97957.72;227695;1241;139577;-61
2022/11/22 02:53:30;;;;;;;66.00;38.60;;;;;;;2.79;69.11;97960.32;226918;1238;139991;-61
2022/11/22 02:58:33;;;;;;;63.30;38.00;;;;;;;2.75;69.28;97958.60;227834;1226;138715;-62
2022/11/22 03:03:36;;;;;;;55.40;34.80;;;;;;;2.74;69.21;97960.23;226870;1241;139408;-65
2022/11/22 03:08:39;;;;;;;65.00;39.20;;;;;;;2.79;68.91;97962.29;226763;1241;139006;-65
2022/11/22 03:13:42;;;;;;;65.20;39.60;;;;;;;2.84;69.21;97953.64;226794;1249;138301;-62
2022/11/22 03:18:45;;;;;;;73.10;41.30;;;;;;;2.83;68.68;97944.94;226819;1241;138413;-61
2022/11/22 03:23:48;;;;;;;66.40;38.00;;;;;;;2.82;69.03;97940.27;227649;1234;138688;-60
2022/11/22 03:28:51;;;;;;;65.60;38.90;;;;;;;2.80;68.91;97951.21;226930;1249;138770;-65
2022/11/22 03:33:55;;;;;;;67.60;38.00;;;;;;;2.77;69.25;97958.00;227462;1242;138361;-63
2022/11/22 03:38:58;;;;;;;62.00;35.80;;;;;;;2.75;69.24;97960.02;226921;1238;138776;-62
2022/11/22 03:44:01;;;;;;;62.60;36.60;;;;;;;2.74;69.81;97962.34;226538;1249;139317;-64
2022/11/22 03:49:04;;;;;;;65.60;35.50;;;;;;;2.76;69.94;97953.65;226538;1235;138750;-63
2022/11/22 03:54:07;;;;;;;70.80;35.00;;;;;;;2.79;70.29;97947.40;226830;1234;139181;-62
2022/11/22 03:59:10;;;;;;;49.50;29.10;;;;;;;2.83;70.95;97947.89;227804;1242;139561;-65
2022/11/22 04:04:13;;;;;;;46.10;27.40;;;;;;;2.90;71.46;97945.65;227771;1231;139354;-62
2022/11/22 04:09:16;;;;;;;50.60;29.40;;;;;;;3.00;71.67;97946.20;226672;1241;142094;-62
2022/11/22 04:21:32;;;;;;;53.10;28.20;;;;;;;3.12;71.68;97957.17;226698;1237;139559;-64
2022/11/22 04:25:13;;;;;;;58.70;27.40;;;;;;;3.14;71.77;97953.38;226584;1240;138827;-63
2022/11/22 04:30:17;;;;;;;56.40;27.00;;;;;;;3.14;71.62;97947.63;226561;1251;138279;-63
2022/11/22 04:35:22;;;;;;;60.10;25.80;;;;;;;3.12;71.61;97944.38;226853;1249;138816;-64
2022/11/22 04:40:25;;;;;;;52.60;27.40;;;;;;;3.10;71.62;97938.88;226852;1238;138987;-63
2022/11/22 04:45:28;;;;;;;60.20;25.70;;;;;;;3.08;71.71;97926.14;226841;1236;138482;-65
2022/11/22 04:55:53;;;;;;;41.00;24.00;;;;;;;2.98;71.70;97936.48;226875;1248;138587;-62
2022/11/22 05:00:56;;;;;;;40.40;23.30;;;;;;;2.96;71.64;97936.57;227599;1242;138965;-65
2022/11/22 05:06:01;;;;;;;44.90;25.90;;;;;;;3.01;71.67;97938.64;226845;1231;138808;-66
2022/11/22 05:11:04;;;;;;;215.50;136.80;;;;;;;3.09;72.02;97941.21;226771;1237;140484;-65
2022/11/22 05:16:10;;;;;;;48.00;26.70;;;;;;;3.17;71.64;97945.38;226724;1250;140225;-66
2022/11/22 05:21:13;;;;;;;38.80;23.50;;;;;;;3.22;71.53;97945.63;226430;1249;138490;-65
2022/11/22 05:26:17;;;;;;;38.30;22.80;;;;;;;3.14;70.97;97943.93;226422;1238;138500;-66
2022/11/22 05:31:22;;;;;;;38.70;22.80;;;;;;;3.08;70.69;97947.05;226578;1249;138342;-63
2022/11/22 05:36:25;;;;;;;39.60;23.80;;;;;;;3.00;70.78;97944.27;226631;1234;139033;-63
2022/11/22 05:41:28;;;;;;;38.40;22.80;;;;;;;2.92;70.68;97935.20;226801;1237;138397;-62
2022/11/22 05:46:31;;;;;;;93.00;57.10;;;;;;;2.89;70.76;97940.27;227676;1227;139355;-62
2022/11/22 05:51:34;;;;;;;43.10;25.00;;;;;;;2.84;70.99;97944.02;226824;1238;139317;-65
2022/11/22 05:56:37;;;;;;;39.00;24.00;;;;;;;2.90;70.82;97951.23;226568;1234;139398;-66
2022/11/22 06:01:40;;;;;;;37.50;23.70;;;;;;;2.89;70.20;97948.33;226292;1241;138774;-66
2022/11/22 06:06:45;;;;;;;37.50;24.10;;;;;;;2.89;70.01;97952.54;226729;1234;138786;-66
2022/11/22 06:11:48;;;;;;;114.70;72.50;;;;;;;2.90;70.01;97948.99;226804;1234;139837;-63
2022/11/22 06:16:52;;;;;;;49.30;30.40;;;;;;;2.94;70.88;97951.59;226774;1244;138877;-61
2022/11/22 06:21:55;;;;;;;40.00;23.90;;;;;;;2.96;70.20;97958.82;226728;1249;138857;-66
2022/11/22 06:26:58;;;;;;;35.70;22.40;;;;;;;2.92;69.87;97961.30;227572;1241;138627;-66
2022/11/22 06:32:01;;;;;;;35.80;22.50;;;;;;;2.87;69.73;97955.25;227564;1231;139637;-68
2022/11/22 06:37:06;;;;;;;37.30;23.30;;;;;;;2.84;70.11;97963.42;226155;1251;139316;-67
2022/11/22 06:42:09;;;;;;;138.70;84.40;;;;;;;2.81;70.09;97970.40;226059;1242;139128;-66
2022/11/22 06:47:12;;;;;;;38.90;25.40;;;;;;;2.85;70.30;97970.41;226612;1245;139366;-71
2022/11/22 06:52:15;;;;;;;37.50;24.10;;;;;;;2.83;70.15;97971.20;227474;1238;140699;-67
2022/11/22 06:57:19;;;;;;;37.90;22.50;;;;;;;2.84;69.57;97977.80;227679;1226;139263;-64
2022/11/22 07:02:22;;;;;;;41.60;25.70;;;;;;;2.88;69.42;97972.40;226841;1249;140285;-66
2022/11/22 07:07:25;;;;;;;41.00;24.70;;;;;;;2.91;69.58;97975.91;226741;1244;139244;-67
2022/11/22 07:12:28;;;;;;;40.20;24.70;;;;;;;2.93;69.60;97977.73;226585;1249;138562;-68
2022/11/22 07:17:31;;;;;;;114.10;73.10;;;;;;;2.95;69.76;97981.32;226556;1234;139007;-68
2022/11/22 07:22:34;;;;;;;39.00;24.70;;;;;;;3.05;69.82;97982.73;226657;1239;139377;-69
2022/11/22 07:27:37;;;;;;;36.50;24.10;;;;;;;3.03;69.47;97995.28;226649;1245;139211;-72
2022/11/22 07:32:45;;;;;;;38.50;23.60;;;;;;;3.01;69.55;97999.58;226878;1242;139840;-69
2022/11/22 07:37:48;;;;;;;36.40;23.90;;;;;;;3.03;69.94;98002.13;226695;1244;138527;-75
2022/11/22 07:42:51;;;;;;;33.60;20.30;;;;;;;3.06;70.19;98000.74;226702;1245;139666;-65
2022/11/22 07:48:01;;;;;;;34.30;22.30;;;;;;;3.11;70.33;98001.37;226592;1249;138798;-63
2022/11/22 07:53:04;;;;;;;34.60;22.70;;;;;;;3.16;70.62;97995.52;226737;1234;139343;-62
2022/11/22 07:58:07;;;;;;;40.50;23.20;;;;;;;3.25;70.75;97980.88;227552;1226;139072;-64
2022/11/22 08:03:10;;;;;;;35.70;23.00;;;;;;;3.46;70.48;97977.92;227613;1234;138949;-63
2022/11/22 08:08:19;;;;;;;38.00;24.30;;;;;;;3.60;70.15;97982.98;227539;1242;139146;-64
2022/11/22 08:13:23;;;;;;;38.10;23.80;;;;;;;3.71;70.30;97992.60;226804;1234;139090;-63
2022/11/22 08:18:26;;;;;;;72.50;46.40;;;;;;;3.83;70.98;97983.02;226435;1249;139501;-64
2022/11/22 08:23:29;;;;;;;39.60;26.40;;;;;;;3.94;70.19;97993.15;226616;1249;138698;-66
2022/11/22 08:28:32;;;;;;;32.60;21.70;;;;;;;3.99;70.32;97993.25;226870;1242;138533;-63
2022/11/22 08:33:35;;;;;;;34.00;21.70;;;;;;;4.07;69.82;97995.50;226763;1241;138747;-62
2022/11/22 08:38:38;;;;;;;242.70;143.30;;;;;;;4.16;70.18;97999.02;226514;1236;138704;-64
2022/11/22 08:43:42;;;;;;;33.90;23.20;;;;;;;4.29;70.23;98005.37;226720;1232;140379;-65
2022/11/22 08:48:45;;;;;;;36.40;22.50;;;;;;;4.35;69.96;98017.33;226720;1234;138896;-65
2022/11/22 08:53:48;;;;;;;32.60;21.10;;;;;;;4.40;70.14;98023.19;227538;1233;139405;-65
2022/11/22 08:58:53;;;;;;;32.30;20.40;;;;;;;4.50;69.89;98019.02;227717;1230;140748;-65
2022/11/22 09:03:56;;;;;;;31.90;21.10;;;;;;;4.65;69.78;98016.77;226606;1228;139064;-65
2022/11/22 09:08:59;;;;;;;35.40;20.30;;;;;;;4.83;69.50;98018.63;226522;1249;139460;-64
2022/11/22 09:14:22;;;;;;;30.10;18.60;;;;;;;5.00;69.51;98004.49;226706;1237;139683;-64
2022/11/22 09:19:26;;;;;;;24.10;16.80;;;;;;;5.14;69.40;97996.10;226406;1249;139292;-65
2022/11/22 09:24:28;;;;;;;27.70;17.00;;;;;;;5.25;69.01;97990.20;226461;1249;138622;-65
2022/11/22 09:29:32;;;;;;;23.30;16.80;;;;;;;5.37;68.63;98001.66;226308;1238;138536;-64
2022/11/22 09:34:35;;;;;;;23.70;16.10;;;;;;;5.48;68.53;98004.73;226365;1242;138994;-65
2022/11/22 09:39:38;;;;;;;25.60;17.30;;;;;;;5.58;68.14;98007.48;226249;1245;139213;-64
2022/11/22 09:44:54;;;;;;;207.80;132.60;;;;;;;5.73;68.53;98003.94;226598;1243;139499;-65
2022/11/22 09:50:07;;;;;;;31.40;22.20;;;;;;;5.95;68.53;97998.25;226427;1249;139559;-65
2022/11/22 09:55:19;;;;;;;23.80;15.20;;;;;;;6.12;68.00;97985.27;226655;1244;138832;-64
2022/11/22 10:00:27;;;;;;;30.50;20.60;;;;;;;6.22;67.51;97977.43;226496;1237;138918;-65
2022/11/22 10:05:58;;;;;;;33.80;22.70;;;;;;;6.34;67.46;97981.62;227580;1218;139485;-65
2022/11/22 10:11:05;;;;;;;42.10;25.70;;;;;;;6.45;67.18;97983.63;226233;1234;138820;-66
2022/11/22 10:16:30;;;;;;;43.20;29.30;;;;;;;6.57;67.59;97982.48;226276;1244;139316;-64
2022/11/22 10:21:33;;;;;;;321.70;215.70;;;;;;;6.73;66.65;97972.14;226602;1237;139960;-64
2022/11/22 10:26:38;;;;;;;40.10;25.90;;;;;;;6.93;66.52;97960.28;226698;1238;139860;-64
2022/11/22 10:32:06;;;;;;;38.50;25.80;;;;;;;7.06;65.60;97959.97;226514;1226;139362;-64
2022/11/22 10:37:23;;;;;;;41.10;25.40;;;;;;;7.13;65.36;97966.60;226863;1249;139343;-65
2022/11/22 10:42:35;;;;;;;38.60;26.00;;;;;;;7.18;64.85;97972.77;227461;1227;138835;-64
2022/11/22 10:47:56;;;;;;;35.70;24.70;;;;;;;7.13;64.66;97970.79;226666;1241;141534;-65
2022/11/22 10:53:09;;;;;;;38.80;24.50;;;;;;;7.06;64.61;97968.76;226706;1240;138808;-67
2022/11/22 10:58:37;;;;;;;37.10;24.00;;;;;;;7.03;64.75;97963.84;227626;1233;139592;-65
2022/11/22 11:03:43;;;;;;;33.60;23.70;;;;;;;7.00;64.99;97955.81;227535;1227;138684;-65
2022/11/22 11:08:58;;;;;;;39.00;25.80;;;;;;;6.97;65.17;97945.24;226418;1237;139931;-65
2022/11/22 11:14:36;;;;;;;359.60;234.30;;;;;;;7.05;66.56;97934.27;226321;1237;139119;-65
2022/11/22 11:19:42;;;;;;;40.70;27.90;;;;;;;7.25;65.71;97930.15;226282;1249;139357;-65
2022/11/22 11:24:45;;;;;;;32.60;21.60;;;;;;;7.17;65.00;97923.80;226635;1238;139352;-66
2022/11/22 11:29:52;;;;;;;27.50;19.90;;;;;;;7.13;64.88;97921.92;226608;1249;139103;-66
2022/11/22 11:35:06;;;;;;;28.20;18.70;;;;;;;7.15;64.89;97917.75;226854;1244;138923;-64
2022/11/22 11:40:27;;;;;;;22.90;15.70;;;;;;;7.19;64.77;97916.80;226576;1235;140613;-65
2022/11/22 11:45:31;;;;;;;141.70;98.10;;;;;;;7.22;64.39;97917.84;227598;1234;139342;-65
2022/11/22 11:50:34;;;;;;;19.50;12.80;;;;;;;7.37;64.45;97926.14;226817;1244;138858;-65
2022/11/22 11:55:37;;;;;;;18.50;12.20;;;;;;;7.49;63.65;97921.34;226773;1249;139728;-65
2022/11/22 12:00:41;;;;;;;20.70;11.80;;;;;;;7.66;63.21;97918.38;226677;1249;139891;-66
2022/11/22 12:05:44;;;;;;;18.60;12.40;;;;;;;7.78;62.57;97915.98;226669;1234;139162;-65
2022/11/22 12:11:10;;;;;;;17.80;11.50;;;;;;;7.81;62.39;97914.84;226630;1241;138936;-65
2022/11/22 12:16:40;;;;;;;17.10;11.40;;;;;;;7.89;62.20;97921.02;226369;1249;138827;-66
2022/11/22 12:22:00;;;;;;;16.70;11.20;;;;;;;8.02;61.83;97917.84;228055;1202;139830;31
2022/11/22 12:27:04;;;;;;;17.90;12.70;;;;;;;8.13;61.77;97908.56;226370;1248;139061;-67
2022/11/22 12:32:13;;;;;;;19.30;12.00;;;;;;;8.23;61.75;97905.06;226480;1249;139147;-67
2022/11/22 12:37:22;;;;;;;32.90;24.40;;;;;;;8.32;61.53;97899.84;226647;1235;139495;-64
2022/11/22 12:42:38;;;;;;;104.00;70.50;;;;;;;8.38;61.56;97888.15;226508;1242;138677;-65
2022/11/22 12:47:45;;;;;;;42.80;25.80;;;;;;;8.54;62.53;97881.67;226035;1251;139038;-66
2022/11/22 12:55:00;;;;;;;17.70;11.90;;;;;;;9.38;64.11;97869.64;222889;1250;636317;-66
2022/11/22 13:00:16;;;;;;;25.20;15.70;;;;;;;9.23;60.18;97861.02;227213;1237;138866;-66
2022/11/22 13:05:24;;;;;;;25.90;18.00;;;;;;;9.00;60.27;97859.89;227987;1234;137896;-65
2022/11/22 13:10:43;;;;;;;31.30;19.60;;;;;;;8.75;60.67;97857.50;227981;1231;137195;-65
2022/11/22 13:15:50;;;;;;;32.30;21.40;;;;;;;8.59;61.10;97858.34;227820;1233;138132;-64
2022/11/22 13:21:00;;;;;;;32.70;21.40;;;;;;;8.43;61.63;97861.65;228266;1231;137602;-65
2022/11/22 13:26:20;;;;;;;32.00;21.00;;;;;;;8.30;62.01;97860.73;227696;1234;137890;-64
2022/11/22 13:31:24;;;;;;;29.60;20.50;;;;;;;8.21;62.22;97865.48;227723;1241;138185;-66
2022/11/22 13:36:28;;;;;;;28.70;19.60;;;;;;;8.12;62.40;97868.06;227626;1241;138298;-65
2022/11/22 13:42:12;;;;;;;29.30;19.40;;;;;;;8.02;62.51;97866.11;226231;1234;742766;-66
2022/11/22 13:47:16;;;;;;;135.00;91.00;;;;;;;7.93;62.91;97863.94;227573;1230;138039;-65
2022/11/22 13:52:19;;;;;;;35.10;22.10;;;;;;;7.91;63.06;97858.73;227008;1241;138297;-66
2022/11/22 13:57:33;;;;;;;27.30;18.80;;;;;;;7.83;62.97;97851.91;226955;1241;138176;-66
2022/11/22 14:03:05;;;;;;;29.70;19.20;;;;;;;7.68;62.99;97858.04;227021;1235;138529;-67
2022/11/22 14:08:41;;;;;;;30.10;19.40;;;;;;;7.50;63.04;97863.50;227139;1242;140049;-67
2022/11/22 14:14:03;;;;;;;28.20;20.40;;;;;;;7.31;63.36;97869.23;227082;1243;138130;-67
2022/11/22 14:19:21;;;;;;;37.60;23.60;;;;;;;7.15;63.44;97861.13;227177;1241;137692;-67
2022/11/22 14:24:46;;;;;;;39.40;25.50;;;;;;;6.96;63.50;97860.98;227087;1237;138645;-67
2022/11/22 14:30:06;;;;;;;40.10;26.10;;;;;;;6.76;63.72;97864.28;227008;1234;137947;-66
2022/11/22 14:35:16;;;;;;;36.30;24.70;;;;;;;6.59;63.84;97866.92;227189;1234;137449;-67
2022/11/22 14:40:47;;;;;;;38.80;25.20;;;;;;;6.46;64.02;97875.56;227982;1240;137465;-66
2022/11/22 14:45:54;;;;;;;39.10;26.00;;;;;;;6.29;64.17;97872.19;226770;1243;138210;-65
2022/11/22 14:51:13;;;;;;;35.60;24.40;;;;;;;6.24;65.04;97868.63;226931;1241;137767;-68
2022/11/22 15:02:37;;;;;;;38.70;24.10;;;;;;;6.08;65.14;97873.15;226046;1252;138205;-66
2022/11/22 15:08:01;;;;;;;37.40;23.80;;;;;;;6.06;65.29;97871.20;226891;1244;138256;-67
2022/11/22 15:13:33;;;;;;;38.60;24.90;;;;;;;6.02;65.13;97864.94;227086;1241;138066;-66
2022/11/22 15:18:41;;;;;;;99.70;61.10;;;;;;;5.98;65.63;97861.30;227083;1238;137667;-67
2022/11/22 15:24:30;;;;;;;55.30;33.90;;;;;;;6.09;66.18;97873.98;227925;1232;138236;-67
2022/11/22 15:30:20;;;;;;;122.70;82.50;;;;;;;6.07;65.70;97883.11;227895;1231;138653;-67
2022/11/22 15:35:56;;;;;;;50.20;32.70;;;;;;;5.98;65.64;97894.61;226955;1241;138635;-69
2022/11/22 15:41:22;;;;;;;40.80;23.80;;;;;;;5.87;65.60;97897.69;226773;1249;137947;-68
2022/11/22 15:46:47;;;;;;;38.70;23.30;;;;;;;5.74;65.68;97895.17;226848;1235;138026;-68
2022/11/22 15:52:27;;;;;;;38.70;22.60;;;;;;;5.67;66.12;97898.59;227027;1240;138183;-69
2022/11/22 15:57:57;;;;;;;34.40;21.20;;;;;;;5.60;66.43;97897.37;227050;1238;137666;-67
2022/11/22 16:03:05;;;;;;;293.00;203.00;;;;;;;5.56;66.30;97901.71;227766;1234;137774;-67
2022/11/22 16:08:13;;;;;;;38.50;20.90;;;;;;;5.56;66.74;97902.25;227076;1238;139657;-66
2022/11/22 16:13:19;;;;;;;37.00;20.60;;;;;;;5.54;66.35;97907.10;226971;1241;139007;-68
2022/11/22 16:18:27;;;;;;;33.80;20.20;;;;;;;5.56;66.42;97908.20;227017;1241;138722;-66
2022/11/22 16:23:32;;;;;;;33.70;20.50;;;;;;;5.58;66.69;97910.56;227184;1241;138418;-66
2022/11/22 16:28:37;;;;;;;33.20;19.30;;;;;;;5.62;66.83;97914.34;227005;1238;138910;-65
2022/11/22 16:33:40;;;;;;;32.20;19.80;;;;;;;5.68;66.71;97906.61;227950;1234;137883;-67
2022/11/22 16:38:45;;;;;;;31.80;19.20;;;;;;;5.71;66.38;97910.30;227774;1234;138094;-65
2022/11/22 16:43:53;;;;;;;37.60;20.40;;;;;;;5.68;66.19;97914.14;226772;1249;138737;-67
2022/11/22 16:48:57;;;;;;;34.50;20.10;;;;;;;5.62;65.95;97919.28;227146;1239;137921;-66
2022/11/22 16:54:10;;;;;;;39.00;23.30;;;;;;;5.55;66.20;97921.61;227807;1233;137797;-69
2022/11/22 16:59:14;;;;;;;34.70;22.00;;;;;;;5.50;66.24;97930.91;227239;1241;138010;-66
2022/11/22 17:04:24;;;;;;;34.90;21.80;;;;;;;5.47;66.22;97921.41;227147;1241;137918;-65
2022/11/22 17:09:33;;;;;;;26.10;17.70;;;;;;;5.47;66.40;97918.07;226927;1227;137993;-65
2022/11/22 17:14:38;;;;;;;26.00;17.50;;;;;;;5.46;66.59;97913.33;227230;1244;137994;-66
2022/11/22 17:19:52;;;;;;;;;;;;;;;;;;;;;
2022/11/22 17:24:59;;;;;;;161.20;95.40;;;;;;;5.47;66.79;97936.70;227045;1238;137438;-67
2022/11/22 17:30:04;;;;;;;117.80;83.60;;;;;;;5.56;66.87;97934.58;226934;1240;138163;-67
2022/11/22 17:35:09;;;;;;;24.60;15.80;;;;;;;5.62;66.37;97929.14;227303;1249;139191;-65
2022/11/22 17:40:14;;;;;;;24.10;15.60;;;;;;;5.66;65.93;97925.51;227052;1236;138566;-66
2022/11/22 17:45:17;;;;;;;23.40;14.00;;;;;;;5.68;65.24;97928.61;226852;1243;138207;-66
2022/11/22 17:50:25;;;;;;;24.00;15.70;;;;;;;5.63;65.39;97935.70;227111;1242;138271;-67
2022/11/22 17:55:28;;;;;;;26.00;15.20;;;;;;;5.55;65.33;97933.27;227139;1240;138006;-65
2022/11/22 18:01:02;;;;;;;22.60;15.30;;;;;;;5.44;65.28;97940.55;227084;1235;138299;-66
2022/11/22 18:06:16;;;;;;;28.60;17.20;;;;;;;5.35;65.50;97940.94;226789;1241;137797;-65
2022/11/22 18:11:20;;;;;;;96.00;62.60;;;;;;;5.28;65.57;97941.83;227021;1226;138214;-67
2022/11/22 18:16:37;;;;;;;33.50;22.20;;;;;;;5.27;66.12;97946.70;227048;1247;221499;-65
2022/11/22 18:21:44;;;;;;;25.40;16.30;;;;;;;5.24;65.74;97957.40;227828;1233;138035;-66
2022/11/22 18:26:48;;;;;;;25.20;16.00;;;;;;;5.16;65.92;97955.94;227038;1242;137782;-66
2022/11/22 18:31:52;;;;;;;24.80;17.00;;;;;;;5.11;65.61;97958.34;226981;1242;137727;-66
2022/11/22 18:36:57;;;;;;;28.30;18.60;;;;;;;5.05;65.94;97961.16;227943;1237;140214;-66
2022/11/22 18:42:23;;;;;;;26.30;17.90;;;;;;;4.99;66.07;97955.81;226915;1240;139595;-66
2022/11/22 18:47:26;;;;;;;29.90;18.80;;;;;;;4.93;66.09;97950.37;226938;1252;138008;-67
2022/11/22 18:52:33;;;;;;;28.80;19.60;;;;;;;4.88;66.17;97941.38;226877;1241;138480;-66
2022/11/22 18:57:36;;;;;;;44.40;25.90;;;;;;;4.86;66.74;97941.27;227092;1241;138670;-66
2022/11/22 19:02:40;;;;;;;30.10;19.20;;;;;;;4.89;66.29;97936.56;227119;1240;138793;-66
2022/11/22 19:07:50;;;;;;;31.40;19.70;;;;;;;4.89;65.91;97940.94;227116;1247;138283;-65
2022/11/22 19:12:54;;;;;;;31.10;20.10;;;;;;;4.88;65.91;97947.50;227087;1241;139850;-66
2022/11/22 19:18:01;;;;;;;33.90;20.30;;;;;;;4.85;65.96;97945.05;227014;1240;138387;-66
2022/11/22 19:23:04;;;;;;;31.20;20.30;;;;;;;4.78;66.16;97952.80;227244;1245;138203;-66
2022/11/22 19:28:08;;;;;;;31.80;19.90;;;;;;;4.71;66.19;97958.64;226915;1249;138534;-66
2022/11/22 19:33:11;;;;;;;34.00;20.60;;;;;;;4.66;66.18;97960.35;227004;1238;138782;-66
2022/11/22 19:38:15;;;;;;;34.40;21.20;;;;;;;4.61;66.35;97958.48;226982;1233;138316;-65
2022/11/22 19:43:20;;;;;;;191.20;121.90;;;;;;;4.62;66.87;97962.98;227133;1234;137968;-66
2022/11/22 19:48:23;;;;;;;37.00;21.50;;;;;;;4.68;66.94;97967.20;226701;1235;138450;-67
2022/11/22 19:53:30;;;;;;;35.40;20.90;;;;;;;4.63;66.34;97968.91;227062;1241;138202;-66
2022/11/22 19:58:34;;;;;;;33.60;20.40;;;;;;;4.53;66.41;97967.20;226949;1239;138312;-66
2022/11/22 20:03:39;;;;;;;198.50;124.20;;;;;;;4.43;66.66;97969.46;226746;1248;138220;-65
2022/11/22 20:08:43;;;;;;;;;;;;;;;4.49;67.34;97974.06;226446;1242;138727;-66
2022/11/22 20:13:48;;;;;;;35.60;21.60;;;;;;;4.42;66.67;97972.49;226749;1238;124278;-67
2022/11/22 20:18:56;;;;;;;37.80;21.70;;;;;;;4.37;66.51;97982.45;226976;1238;139150;-68
2022/11/22 20:23:59;;;;;;;41.10;23.00;;;;;;;4.35;66.87;97982.92;226750;1241;138443;-68
2022/11/22 20:29:06;;;;;;;38.90;22.60;;;;;;;4.32;66.75;97983.60;227825;1244;138072;-69
2022/11/22 20:34:09;;;;;;;36.20;21.70;;;;;;;4.28;66.84;97989.81;226912;1238;138660;-69
2022/11/22 20:39:12;;;;;;;34.70;21.50;;;;;;;4.21;66.58;97987.20;226983;1241;138541;-68
2022/11/22 20:44:15;;;;;;;34.50;21.30;;;;;;;4.12;66.70;97979.92;226821;1241;138442;-68
2022/11/22 20:49:23;;;;;;;27.90;18.10;;;;;;;4.06;66.89;97971.48;226703;1238;138270;-68
2022/11/22 20:54:27;;;;;;;37.20;22.30;;;;;;;4.01;67.00;97977.36;227786;1245;138141;-67
2022/11/22 20:59:33;;;;;;;38.90;22.20;;;;;;;3.96;67.33;97983.56;227041;1235;138947;-65
2022/11/22 21:04:39;;;;;;;37.30;22.30;;;;;;;3.92;67.33;97987.63;226975;1254;138408;-66
2022/11/22 21:09:42;;;;;;;37.40;23.40;;;;;;;3.87;67.50;97988.63;226763;1240;138694;-66
2022/11/22 21:14:46;;;;;;;35.80;23.20;;;;;;;3.82;67.54;97992.04;227570;1242;137989;-66
2022/11/22 21:20:05;;;;;;;41.10;23.10;;;;;;;3.77;67.63;97997.73;227029;1234;138233;-65
2022/11/22 21:25:08;;;;;;;40.00;23.90;;;;;;;3.71;67.40;97993.30;226689;1241;138566;-65
2022/11/22 21:30:13;;;;;;;39.90;25.10;;;;;;;3.70;67.45;97996.87;227660;1231;138667;-65
2022/11/22 21:35:20;;;;;;;38.30;23.60;;;;;;;3.73;67.66;97992.16;227013;1245;138573;-66
2022/11/22 21:40:26;;;;;;;43.00;24.20;;;;;;;3.77;67.45;97986.48;227004;1255;138268;-65
2022/11/22 21:45:31;;;;;;;41.10;24.60;;;;;;;3.79;67.38;97979.20;226685;1235;138314;-65
2022/11/22 21:50:34;;;;;;;39.80;23.10;;;;;;;3.77;67.32;97989.83;227671;1229;138264;-66
2022/11/22 21:55:51;;;;;;;37.40;22.60;;;;;;;3.73;67.15;97993.20;226739;1251;138795;-65
2022/11/22 22:01:00;;;;;;;36.60;23.40;;;;;;;3.67;67.34;97999.98;226735;1237;139015;-66
2022/11/22 22:06:04;;;;;;;42.60;23.60;;;;;;;3.59;67.13;98001.66;226831;1233;138675;-65
2022/11/22 22:11:10;;;;;;;;;;;;;;;3.51;67.36;97998.37;226612;1243;137713;-66
2022/11/22 22:16:17;;;;;;;36.70;22.70;;;;;;;3.44;67.38;97996.42;226703;1235;124529;-66
2022/11/22 22:21:21;;;;;;;33.80;21.90;;;;;;;3.39;67.33;97987.58;226903;1242;138331;-66
2022/11/22 22:26:25;;;;;;;36.10;20.90;;;;;;;3.31;67.57;97987.79;227712;1245;139231;-66
2022/11/22 22:31:28;;;;;;;36.50;21.40;;;;;;;3.27;67.85;97984.83;226917;1238;138367;-66
2022/11/22 22:36:33;;;;;;;35.30;20.90;;;;;;;3.25;68.00;97986.16;226925;1234;138889;-65
2022/11/22 22:41:39;;;;;;;33.70;21.00;;;;;;;3.22;67.97;97984.53;227127;1245;138700;-65
2022/11/22 22:46:46;;;;;;;33.50;20.80;;;;;;;3.27;68.01;97991.30;227813;1240;139037;-64
2022/11/22 22:51:51;;;;;;;35.20;21.70;;;;;;;3.31;67.90;98002.31;226716;1244;138392;-66
2022/11/22 22:56:55;;;;;;;38.80;22.00;;;;;;;3.33;67.83;98002.59;226580;1241;138408;-65
2022/11/22 23:01:59;;;;;;;35.80;21.50;;;;;;;3.31;67.46;97995.81;227013;1243;138167;-66
2022/11/22 23:07:06;;;;;;;37.50;21.00;;;;;;;3.27;67.42;97999.73;226856;1235;138385;-65
2022/11/22 23:12:10;;;;;;;35.70;21.70;;;;;;;3.21;67.48;97998.24;226416;1244;138228;-65
2022/11/22 23:17:16;;;;;;;34.10;21.30;;;;;;;3.17;67.61;98003.89;226340;1241;138657;-63
2022/11/22 23:22:21;;;;;;;34.30;20.30;;;;;;;3.11;67.67;98005.92;227076;1241;138840;-64
2022/11/22 23:27:31;;;;;;;35.10;21.90;;;;;;;3.05;67.98;98002.54;227799;1226;138825;-64
2022/11/22 23:32:38;;;;;;;36.20;22.10;;;;;;;3.02;67.91;98000.04;226929;1241;138975;-63
2022/11/22 23:37:58;;;;;;;40.00;23.40;;;;;;;3.01;68.08;97996.42;227762;1231;139053;-63
2022/11/22 23:43:02;;;;;;;40.10;22.80;;;;;;;2.99;68.26;97990.76;227030;1238;138527;-64
2022/11/22 23:48:06;;;;;;;42.40;23.70;;;;;;;3.00;68.41;97986.14;227456;1234;139184;-64